Time;durP1;ratioP1;P1;durP2;ratioP2;P2;SDS_P1;SDS_P2;PMS_P1;PMS_P2;Temp;Humidity;BMP_temperature;BMP_pressure;BME280_temperature;BME280_humidity;BME280_pressure;Samples;Min_cycle;Max_cycle;Signal;HPM_P1;HPM_P2
2023/03/15 00:00:09;;;;;;;7.03;1.95;;;1.50;99.90;;;;;;5060432;22;20597;-61
2023/03/15 00:02:36;;;;;;;5.97;2.30;;;1.50;99.90;;;;;;5054249;28;20212;-61
2023/03/15 00:05:02;;;;;;;5.70;2.33;;;1.50;99.90;;;;;;5054222;28;20212;-60
2023/03/15 00:07:30;;;;;;;2.08;1.80;;;1.50;99.90;;;;;;5054703;28;20204;-61
2023/03/15 00:09:57;;;;;;;2.50;1.25;;;1.50;99.90;;;;;;5054277;28;20218;-61
2023/03/15 00:12:23;;;;;;;7.05;1.85;;;1.50;99.90;;;;;;5054039;28;20224;-60
2023/03/15 00:14:51;;;;;;;3.50;1.60;;;1.50;99.90;;;;;;5053690;28;20208;-61
2023/03/15 00:17:21;;;;;;;4.70;1.75;;;1.40;99.90;;;;;;5058531;28;20232;-60
2023/03/15 00:19:48;;;;;;;5.93;1.65;;;1.40;99.90;;;;;;5058583;28;20229;-60
2023/03/15 00:22:15;;;;;;;8.57;1.75;;;1.40;99.90;;;;;;5058966;28;20733;-59
2023/03/15 00:24:42;;;;;;;3.78;2.10;;;1.40;99.90;;;;;;5057200;28;20208;-60
2023/03/15 00:27:09;;;;;;;9.90;2.20;;;1.40;99.90;;;;;;5059370;28;20202;-60
2023/03/15 00:29:36;;;;;;;3.85;1.80;;;1.50;99.90;;;;;;5059852;28;20225;-60
2023/03/15 00:32:03;;;;;;;6.05;2.15;;;1.50;99.90;;;;;;5059022;28;20700;-60
2023/03/15 00:34:32;;;;;;;9.60;2.00;;;1.50;99.90;;;;;;5059295;28;20205;-61
2023/03/15 00:36:59;;;;;;;6.22;2.00;;;1.50;99.90;;;;;;5068289;28;20217;-61
2023/03/15 00:39:26;;;;;;;2.13;1.33;;;1.50;99.90;;;;;;5069057;28;20222;-60
2023/03/15 00:41:55;;;;;;;5.75;1.80;;;1.50;99.90;;;;;;5064889;28;20224;-61
2023/03/15 00:44:23;;;;;;;3.72;1.73;;;1.60;99.90;;;;;;5067881;28;20602;-61
2023/03/15 00:46:49;;;;;;;7.00;1.65;;;1.60;99.90;;;;;;5067866;28;20198;-60
2023/03/15 00:49:17;;;;;;;5.47;1.50;;;1.70;99.90;;;;;;5066557;28;20217;-61
2023/03/15 00:51:45;;;;;;;11.20;1.85;;;1.70;99.90;;;;;;5062914;28;20206;-61
2023/03/15 00:54:12;;;;;;;8.20;2.22;;;1.80;99.90;;;;;;5058233;28;20201;-60
2023/03/15 00:56:40;;;;;;;12.68;2.28;;;1.80;99.90;;;;;;5067714;28;20226;-60
2023/03/15 00:59:07;;;;;;;2.40;1.30;;;1.90;99.90;;;;;;5064089;28;20585;-61
2023/03/15 01:01:34;;;;;;;2.22;1.52;;;2.00;99.90;;;;;;5058474;28;20194;-60
2023/03/15 01:04:01;;;;;;;11.57;2.70;;;2.10;99.90;;;;;;5057778;28;20548;-61
2023/03/15 01:06:29;;;;;;;7.57;2.35;;;2.20;99.90;;;;;;5058677;28;20202;-61
2023/03/15 01:08:57;;;;;;;8.77;2.30;;;2.30;99.90;;;;;;5058015;28;20244;-60
2023/03/15 01:11:26;;;;;;;2.95;1.50;;;2.40;99.90;;;;;;5058082;28;20204;-61
2023/03/15 01:13:54;;;;;;;5.07;1.52;;;2.50;99.90;;;;;;5057753;28;20205;-60
2023/03/15 01:16:21;;;;;;;9.13;2.15;;;2.50;99.90;;;;;;5056994;28;20217;-60
2023/03/15 01:18:50;;;;;;;4.57;1.63;;;2.60;99.90;;;;;;5058255;28;20235;-61
2023/03/15 01:21:17;;;;;;;6.25;1.42;;;2.70;99.90;;;;;;5060501;28;20198;-58
2023/03/15 01:23:44;;;;;;;8.43;1.90;;;2.70;99.90;;;;;;5061314;28;20202;-60
2023/03/15 01:26:14;;;;;;;2.83;1.35;;;2.80;99.90;;;;;;5065423;28;20309;-60
2023/03/15 01:28:41;;;;;;;5.10;2.03;;;2.80;99.80;;;;;;5058813;28;20655;-60
2023/03/15 01:31:14;;;;;;;5.30;1.55;;;2.90;99.70;;;;;;5056344;28;20197;-61
2023/03/15 01:33:41;;;;;;;4.35;1.55;;;2.90;99.20;;;;;;5056130;28;20593;-61
2023/03/15 01:36:08;;;;;;;3.83;1.45;;;3.00;98.80;;;;;;5056019;28;20229;-59
2023/03/15 01:38:35;;;;;;;2.30;1.40;;;3.00;98.40;;;;;;5055328;28;20208;-60
2023/03/15 01:41:02;;;;;;;3.15;1.00;;;3.10;98.10;;;;;;5056206;28;20292;-61
2023/03/15 01:43:31;;;;;;;12.25;1.55;;;3.10;97.80;;;;;;5056039;28;20201;-60
2023/03/15 01:46:14;;;;;;;6.63;1.88;;;3.20;97.40;;;;;;5055958;28;20275;-62
2023/03/15 01:48:43;;;;;;;4.10;1.40;;;3.20;97.00;;;;;;5056061;28;20553;-61
2023/03/15 01:51:16;;;;;;;3.63;1.48;;;3.20;95.80;;;;;;5055767;28;20205;-61
2023/03/15 01:53:47;;;;;;;6.72;2.00;;;3.30;95.50;;;;;;5056190;28;20190;-63
2023/03/15 01:56:15;;;;;;;4.88;1.45;;;3.30;95.00;;;;;;5062463;28;20217;-60
2023/03/15 01:58:44;;;;;;;3.05;1.23;;;3.30;94.80;;;;;;5071809;28;20211;-61
2023/03/15 02:01:13;;;;;;;12.02;1.90;;;3.30;94.80;;;;;;5072785;28;20194;-61
2023/03/15 02:03:45;;;;;;;4.72;1.52;;;3.40;94.80;;;;;;5072489;28;20219;-61
2023/03/15 02:06:16;;;;;;;3.00;1.75;;;3.40;94.50;;;;;;5071600;28;20186;-60
2023/03/15 02:08:47;;;;;;;6.47;2.08;;;3.40;94.30;;;;;;5061183;28;20189;-61
2023/03/15 02:11:15;;;;;;;1.80;1.65;;;3.40;93.80;;;;;;5060634;28;20193;-62
2023/03/15 02:13:44;;;;;;;3.15;1.35;;;3.40;93.50;;;;;;5058524;28;20198;-61
2023/03/15 02:16:11;;;;;;;7.45;2.20;;;3.40;93.40;;;;;;5058017;28;20209;-62
2023/03/15 02:18:38;;;;;;;5.22;1.65;;;3.40;93.00;;;;;;5055698;28;20210;-61
2023/03/15 02:21:14;;;;;;;2.95;1.50;;;3.40;93.00;;;;;;5055808;28;20201;-62
2023/03/15 02:23:42;;;;;;;4.15;2.00;;;3.40;93.10;;;;;;5056145;28;20192;-61
2023/03/15 02:26:19;;;;;;;4.63;1.65;;;3.40;93.30;;;;;;5055894;28;20206;-62
2023/03/15 02:28:48;;;;;;;5.43;1.85;;;3.30;93.50;;;;;;5055201;28;20182;-60
2023/03/15 02:31:15;;;;;;;4.30;1.83;;;3.30;93.80;;;;;;5055632;28;20250;-62
2023/03/15 02:33:44;;;;;;;5.97;1.83;;;3.40;94.10;;;;;;5062272;28;20269;-61
2023/03/15 02:36:17;;;;;;;3.30;1.75;;;3.40;94.10;;;;;;5061374;28;20201;-60
2023/03/15 02:38:44;;;;;;;4.20;1.60;;;3.40;94.10;;;;;;5055060;28;20196;-60
2023/03/15 02:41:12;;;;;;;4.78;2.15;;;3.40;94.20;;;;;;5054906;28;20202;-60
2023/03/15 02:43:40;;;;;;;5.63;2.05;;;3.40;94.30;;;;;;5055223;28;20293;-61
2023/03/15 02:46:09;;;;;;;9.85;2.13;;;3.40;94.40;;;;;;5054979;28;20206;-60
2023/03/15 02:48:38;;;;;;;7.22;1.92;;;3.40;94.60;;;;;;5055436;28;20206;-61
2023/03/15 02:51:06;;;;;;;4.55;1.90;;;3.40;94.90;;;;;;5053892;28;20198;-61
2023/03/15 02:53:33;;;;;;;5.38;1.60;;;3.40;95.00;;;;;;5054555;28;20201;-61
2023/03/15 02:56:00;;;;;;;6.18;1.83;;;3.30;95.10;;;;;;5054607;28;20249;-61
2023/03/15 02:58:27;;;;;;;5.72;1.90;;;3.30;95.40;;;;;;5054551;28;20220;-60
2023/03/15 03:00:54;;;;;;;5.95;1.52;;;3.30;95.80;;;;;;5056387;28;20213;-61
2023/03/15 03:03:22;;;;;;;6.75;2.20;;;3.20;96.00;;;;;;5061012;28;20221;-60
2023/03/15 03:05:49;;;;;;;6.95;2.38;;;3.20;96.30;;;;;;5066713;28;20691;-61
2023/03/15 03:08:16;;;;;;;2.92;1.73;;;3.10;96.60;;;;;;5067692;28;20656;-61
2023/03/15 03:10:43;;;;;;;7.28;1.80;;;3.10;96.90;;;;;;5066033;28;20241;-61
2023/03/15 03:13:10;;;;;;;6.30;1.85;;;3.10;97.00;;;;;;5059277;28;20211;-61
2023/03/15 03:15:37;;;;;;;6.80;2.00;;;3.10;97.50;;;;;;5053845;28;20690;-61
2023/03/15 03:18:04;;;;;;;3.45;2.70;;;3.00;97.70;;;;;;5053925;28;20222;-61
2023/03/15 03:20:32;;;;;;;6.40;2.05;;;3.00;98.00;;;;;;5053933;28;20225;-61
2023/03/15 03:23:04;;;;;;;7.15;2.22;;;2.90;98.30;;;;;;5053760;28;20206;-61
2023/03/15 03:25:31;;;;;;;2.30;2.10;;;2.80;98.80;;;;;;5054723;28;20190;-61
2023/03/15 03:27:58;;;;;;;7.40;2.70;;;2.80;99.30;;;;;;5062991;28;20208;-61
2023/03/15 03:30:25;;;;;;;4.47;2.40;;;2.70;99.80;;;;;;5061974;28;20221;-61
2023/03/15 03:32:52;;;;;;;5.93;2.38;;;2.70;99.90;;;;;;5061830;28;20217;-61
2023/03/15 03:35:19;;;;;;;5.95;2.10;;;2.70;99.90;;;;;;5062232;28;20202;-61
2023/03/15 03:37:47;;;;;;;6.22;2.50;;;2.70;99.90;;;;;;5060268;28;20218;-60
2023/03/15 03:40:14;;;;;;;6.88;2.78;;;2.60;99.90;;;;;;5059577;28;20287;-60
2023/03/15 03:42:41;;;;;;;7.18;2.42;;;2.60;99.90;;;;;;5059433;28;20541;-61
2023/03/15 03:45:09;;;;;;;2.63;2.00;;;2.60;99.90;;;;;;5058121;28;20568;-61
2023/03/15 03:47:35;;;;;;;3.60;2.50;;;2.50;99.90;;;;;;5055673;28;20197;-60
2023/03/15 03:50:02;;;;;;;6.22;2.67;;;2.50;99.90;;;;;;5054447;28;20222;-60
2023/03/15 03:52:29;;;;;;;6.07;2.92;;;2.40;99.90;;;;;;5054263;28;20206;-61
2023/03/15 03:54:57;;;;;;;6.10;2.70;;;2.40;99.90;;;;;;5054072;28;20213;-61
2023/03/15 03:57:24;;;;;;;6.60;2.97;;;2.40;99.90;;;;;;5053217;28;20308;-60
2023/03/15 03:59:51;;;;;;;4.60;2.20;;;2.40;99.90;;;;;;5053661;28;20239;-60
2023/03/15 04:02:18;;;;;;;2.72;2.53;;;2.40;99.90;;;;;;5054178;28;20201;-59
2023/03/15 04:04:49;;;;;;;2.65;2.45;;;2.40;99.90;;;;;;5055962;28;20202;-61
2023/03/15 04:07:15;;;;;;;11.55;2.72;;;2.40;99.90;;;;;;5055612;28;20272;-61
2023/03/15 04:11:25;;;;;;;5.93;2.72;;;2.40;99.90;;;;;;5097993;28;20541;-60
2023/03/15 04:13:52;;;;;;;5.20;3.75;;;2.40;99.90;;;;;;5092238;28;20243;-60
2023/03/15 04:16:19;;;;;;;5.22;3.22;;;2.50;99.90;;;;;;5091944;28;20206;-60
2023/03/15 04:18:45;;;;;;;5.15;2.90;;;2.50;99.90;;;;;;5091511;28;20200;-60
2023/03/15 04:21:12;;;;;;;5.00;3.05;;;2.50;99.90;;;;;;5091102;28;20196;-60
2023/03/15 04:23:39;;;;;;;5.97;4.00;;;2.60;99.90;;;;;;5091302;28;20207;-60
2023/03/15 04:26:06;;;;;;;3.60;3.08;;;2.60;99.90;;;;;;5097332;22;20233;-61
2023/03/15 04:28:36;;;;;;;5.03;3.17;;;2.60;99.90;;;;;;5070294;28;20612;-61
2023/03/15 04:31:03;;;;;;;3.45;2.45;;;2.60;99.90;;;;;;5070353;28;20274;-60
2023/03/15 04:33:31;;;;;;;7.00;2.88;;;2.60;99.90;;;;;;5070507;28;20204;-61
2023/03/15 04:35:58;;;;;;;12.15;4.72;;;2.60;99.90;;;;;;5070218;28;20232;-62
2023/03/15 04:38:25;;;;;;;5.70;3.05;;;2.60;99.90;;;;;;5070579;28;20201;-60
2023/03/15 04:40:53;;;;;;;3.28;2.95;;;2.60;99.90;;;;;;5070035;28;20201;-61
2023/03/15 04:43:20;;;;;;;3.70;3.35;;;2.70;99.90;;;;;;5069994;28;20215;-61
2023/03/15 04:45:48;;;;;;;2.75;2.40;;;2.70;99.90;;;;;;5069700;28;20225;-61
2023/03/15 04:48:15;;;;;;;3.90;3.17;;;2.70;99.90;;;;;;5070230;28;20205;-61
2023/03/15 04:50:42;;;;;;;3.90;2.53;;;2.70;99.90;;;;;;5069503;28;20220;-61
2023/03/15 04:53:08;;;;;;;4.30;3.03;;;2.70;99.90;;;;;;5069647;28;20607;-62
2023/03/15 04:55:35;;;;;;;2.85;2.65;;;2.80;99.90;;;;;;5069837;28;20225;-61
2023/03/15 04:58:02;;;;;;;5.53;3.20;;;2.80;99.90;;;;;;5069514;28;20254;-62
2023/03/15 05:00:29;;;;;;;6.00;3.58;;;2.80;99.90;;;;;;5068803;28;20208;-63
2023/03/15 05:02:57;;;;;;;5.97;3.72;;;2.80;99.90;;;;;;5069041;28;20678;-61
2023/03/15 05:05:24;;;;;;;5.22;3.75;;;2.80;99.90;;;;;;5069384;28;20729;-61
2023/03/15 05:07:51;;;;;;;11.15;3.47;;;2.70;99.90;;;;;;5069739;28;20235;-62
2023/03/15 05:10:18;;;;;;;7.10;3.72;;;2.70;99.90;;;;;;5069456;28;20270;-62
2023/03/15 05:12:45;;;;;;;5.95;3.50;;;2.60;99.90;;;;;;5069709;28;20201;-61
2023/03/15 05:15:12;;;;;;;4.60;3.53;;;2.60;99.90;;;;;;5069603;28;20221;-61
2023/03/15 05:17:39;;;;;;;3.58;3.15;;;2.60;99.90;;;;;;5069124;28;20209;-62
2023/03/15 05:20:10;;;;;;;9.05;3.33;;;2.60;99.90;;;;;;5068471;28;20251;-61
2023/03/15 05:22:38;;;;;;;8.52;4.40;;;2.60;99.90;;;;;;5055315;28;20624;-62
2023/03/15 05:25:05;;;;;;;3.95;3.13;;;2.60;99.90;;;;;;5055658;28;20229;-63
2023/03/15 05:27:32;;;;;;;6.25;3.50;;;2.60;99.90;;;;;;5055125;28;20198;-62
2023/03/15 05:30:01;;;;;;;6.30;3.65;;;2.60;99.90;;;;;;5055123;28;20306;-62
2023/03/15 05:32:28;;;;;;;5.05;3.40;;;2.70;99.90;;;;;;5054855;28;20198;-62
2023/03/15 05:34:55;;;;;;;4.78;2.83;;;2.70;99.90;;;;;;5054239;28;20227;-62
2023/03/15 05:37:24;;;;;;;4.90;3.25;;;2.70;99.90;;;;;;5055432;28;20206;-61
2023/03/15 05:39:50;;;;;;;4.30;2.90;;;2.70;99.90;;;;;;5055294;28;20197;-61
2023/03/15 05:42:20;;;;;;;5.32;2.72;;;2.70;99.90;;;;;;5055424;28;20671;-62
2023/03/15 05:44:48;;;;;;;6.47;3.40;;;2.70;99.90;;;;;;5055409;28;20317;-61
2023/03/15 05:47:15;;;;;;;6.30;3.13;;;2.80;99.90;;;;;;5057444;28;20205;-62
2023/03/15 05:49:42;;;;;;;5.22;2.72;;;2.70;99.90;;;;;;5054694;28;20200;-62
2023/03/15 05:52:09;;;;;;;7.40;3.30;;;2.70;99.90;;;;;;5054767;28;20208;-62
2023/03/15 05:54:37;;;;;;;5.97;3.95;;;2.80;99.90;;;;;;5055150;28;20715;-63
2023/03/15 05:57:04;;;;;;;4.18;3.63;;;2.80;99.90;;;;;;5054526;28;20206;-63
2023/03/15 05:59:31;;;;;;;6.00;3.08;;;2.80;99.90;;;;;;5046670;28;20212;-62
2023/03/15 06:01:58;;;;;;;4.35;3.10;;;2.80;99.90;;;;;;5055047;28;20197;-62
2023/03/15 06:04:25;;;;;;;4.28;3.42;;;2.80;99.90;;;;;;5054655;28;20252;-64
2023/03/15 06:06:52;;;;;;;3.97;3.60;;;2.80;99.90;;;;;;5054696;28;20690;-63
2023/03/15 06:09:19;;;;;;;5.20;4.03;;;2.80;99.90;;;;;;5054466;28;20201;-64
2023/03/15 06:11:47;;;;;;;5.82;3.70;;;2.80;99.90;;;;;;5055302;28;20313;-63
2023/03/15 06:14:14;;;;;;;6.15;3.42;;;2.80;99.90;;;;;;5055702;28;20293;-62
2023/03/15 06:16:41;;;;;;;5.82;3.80;;;2.80;99.90;;;;;;5055197;28;20688;-63
2023/03/15 06:19:08;;;;;;;6.70;3.72;;;2.90;99.90;;;;;;5055524;28;20197;-62
2023/03/15 06:21:34;;;;;;;5.70;3.85;;;2.90;99.90;;;;;;5055206;28;20296;-62
2023/03/15 06:24:01;;;;;;;9.05;4.65;;;2.90;99.90;;;;;;5054460;28;20206;-63
2023/03/15 06:26:28;;;;;;;3.97;3.30;;;2.80;99.90;;;;;;5057114;28;20733;-63
2023/03/15 06:28:56;;;;;;;8.02;4.10;;;2.80;99.90;;;;;;5059587;28;20204;-63
2023/03/15 06:31:23;;;;;;;9.07;3.85;;;2.80;99.90;;;;;;5041566;28;20670;-62
2023/03/15 06:33:50;;;;;;;6.95;3.85;;;2.80;99.90;;;;;;5058824;28;20207;-64
2023/03/15 06:36:17;;;;;;;6.40;4.35;;;2.90;99.90;;;;;;5057192;28;20217;-64
2023/03/15 06:38:43;;;;;;;8.40;5.20;;;2.90;99.90;;;;;;5057634;28;20205;-64
2023/03/15 06:41:14;;;;;;;7.85;4.50;;;3.00;99.90;;;;;;5053379;28;20199;-64
2023/03/15 06:43:41;;;;;;;9.43;3.90;;;3.00;99.90;;;;;;5045098;28;20213;-63
2023/03/15 06:46:09;;;;;;;6.00;4.05;;;3.00;99.90;;;;;;5058296;28;20598;-62
2023/03/15 06:48:36;;;;;;;6.40;4.28;;;3.00;99.90;;;;;;5056615;28;20292;-64
2023/03/15 06:51:04;;;;;;;6.63;4.40;;;3.10;99.90;;;;;;5055798;28;20218;-61
2023/03/15 06:53:31;;;;;;;6.75;4.05;;;3.10;99.90;;;;;;5056463;28;20202;-65
2023/03/15 06:55:58;;;;;;;5.18;4.63;;;3.10;99.90;;;;;;5053115;28;20230;-62
2023/03/15 06:58:25;;;;;;;9.13;4.30;;;3.10;99.90;;;;;;5055367;28;20201;-63
2023/03/15 07:00:52;;;;;;;7.00;4.35;;;3.10;99.90;;;;;;5055815;28;20221;-62
2023/03/15 07:03:21;;;;;;;8.93;4.63;;;3.10;99.90;;;;;;5058219;28;20267;-65
2023/03/15 07:05:51;;;;;;;5.38;3.20;;;3.10;99.90;;;;;;5054565;28;20230;-62
2023/03/15 07:08:18;;;;;;;5.85;3.92;;;3.10;99.90;;;;;;5053209;28;20607;-64
2023/03/15 07:10:45;;;;;;;7.05;3.92;;;3.10;99.90;;;;;;5053016;28;20221;-63
2023/03/15 07:13:12;;;;;;;7.50;4.63;;;3.10;99.90;;;;;;5054281;28;20251;-62
2023/03/15 07:15:39;;;;;;;7.80;3.90;;;3.10;99.90;;;;;;5052698;28;20232;-63
2023/03/15 07:18:06;;;;;;;8.23;4.70;;;3.10;99.90;;;;;;5053984;28;20559;-62
2023/03/15 07:20:34;;;;;;;6.35;3.75;;;3.10;99.90;;;;;;5057553;28;20197;-64
2023/03/15 07:23:02;;;;;;;5.20;4.10;;;3.10;99.90;;;;;;5054076;28;20289;-64
2023/03/15 07:25:29;;;;;;;6.05;3.90;;;3.20;99.90;;;;;;5053048;28;20287;-63
2023/03/15 07:27:55;;;;;;;6.40;4.20;;;3.30;99.90;;;;;;5054251;28;20204;-63
2023/03/15 07:30:22;;;;;;;4.53;3.97;;;3.30;99.90;;;;;;5052369;28;20227;-63
2023/03/15 07:32:49;;;;;;;7.30;3.55;;;3.40;99.90;;;;;;5052949;28;20201;-63
2023/03/15 07:35:17;;;;;;;4.55;3.95;;;3.50;99.90;;;;;;5053191;28;20221;-64
2023/03/15 07:37:45;;;;;;;4.15;3.63;;;3.60;99.90;;;;;;5050588;28;20202;-62
2023/03/15 07:40:14;;;;;;;4.15;3.47;;;3.80;99.90;;;;;;5035071;28;20289;-63
2023/03/15 07:42:41;;;;;;;6.05;4.13;;;3.90;99.90;;;;;;5052733;28;20236;-63
2023/03/15 07:45:09;;;;;;;3.60;3.25;;;4.00;99.90;;;;;;5053215;28;20221;-64
2023/03/15 07:47:37;;;;;;;10.30;3.03;;;4.20;99.90;;;;;;5053915;28;20205;-64
2023/03/15 07:50:05;;;;;;;3.75;3.13;;;4.30;99.90;;;;;;5053281;28;20197;-62
2023/03/15 07:52:32;;;;;;;7.03;3.47;;;4.40;99.90;;;;;;5053265;28;20206;-62
2023/03/15 07:55:00;;;;;;;4.45;3.08;;;4.40;99.90;;;;;;5052986;28;20225;-63
2023/03/15 07:57:27;;;;;;;4.70;3.28;;;4.50;99.90;;;;;;5053602;28;20240;-63
2023/03/15 07:59:53;;;;;;;4.57;2.80;;;4.50;99.90;;;;;;5053598;28;20670;-65
2023/03/15 08:02:20;;;;;;;3.92;3.15;;;4.50;99.90;;;;;;5053768;28;20194;-64
2023/03/15 08:04:49;;;;;;;6.50;3.78;;;4.30;99.90;;;;;;5053429;28;20710;-64
2023/03/15 08:07:16;;;;;;;12.00;4.32;;;4.30;99.90;;;;;;5053927;28;20203;-63
2023/03/15 08:09:43;;;;;;;3.10;2.55;;;4.40;99.90;;;;;;5053890;28;20224;-63
2023/03/15 08:12:12;;;;;;;4.25;2.80;;;4.40;99.90;;;;;;5053531;28;20236;-63
2023/03/15 08:14:39;;;;;;;6.25;2.55;;;4.30;99.90;;;;;;5053525;28;20590;-64
2023/03/15 08:17:06;;;;;;;7.60;3.88;;;4.20;99.90;;;;;;5053702;28;20253;-63
2023/03/15 08:19:32;;;;;;;5.43;2.90;;;4.10;99.90;;;;;;5053125;28;20212;-63
2023/03/15 08:21:59;;;;;;;3.22;2.40;;;4.20;99.90;;;;;;5053336;28;20284;-64
2023/03/15 08:24:26;;;;;;;5.60;2.63;;;4.30;99.90;;;;;;5053576;28;20202;-63
2023/03/15 08:26:53;;;;;;;11.18;3.70;;;4.50;99.90;;;;;;5053807;28;20190;-65
2023/03/15 08:29:21;;;;;;;4.65;2.80;;;4.80;99.90;;;;;;5053551;28;20280;-64
2023/03/15 08:31:48;;;;;;;4.68;2.30;;;5.00;99.90;;;;;;5053806;28;20271;-64
2023/03/15 08:34:15;;;;;;;3.20;2.90;;;5.10;99.90;;;;;;5054185;28;20204;-65
2023/03/15 08:36:43;;;;;;;7.45;3.05;;;5.00;99.90;;;;;;5055287;28;20205;-65
2023/03/15 08:39:10;;;;;;;4.38;2.63;;;4.90;99.90;;;;;;5055392;28;20289;-64
2023/03/15 08:41:37;;;;;;;4.47;2.85;;;4.80;99.90;;;;;;5054722;28;20271;-64
2023/03/15 08:44:04;;;;;;;4.30;3.25;;;4.80;99.90;;;;;;5054717;28;20561;-63
2023/03/15 08:46:32;;;;;;;2.53;2.30;;;4.80;99.90;;;;;;5053778;28;20232;-65
2023/03/15 08:49:00;;;;;;;3.53;2.53;;;4.80;99.90;;;;;;5053895;28;20676;-63
2023/03/15 08:51:28;;;;;;;4.88;2.88;;;4.90;99.90;;;;;;5053513;28;20267;-63
2023/03/15 08:53:54;;;;;;;8.18;2.58;;;5.00;99.90;;;;;;5053682;28;20208;-62
2023/03/15 08:56:22;;;;;;;5.75;3.15;;;5.10;99.90;;;;;;5054047;28;20226;-64
2023/03/15 08:58:49;;;;;;;4.82;2.65;;;5.30;99.90;;;;;;5058273;28;20198;-63
2023/03/15 09:01:16;;;;;;;3.60;2.13;;;5.40;99.90;;;;;;5057571;28;20197;-64
2023/03/15 09:03:44;;;;;;;5.47;2.88;;;5.60;99.90;;;;;;5058177;28;20205;-64
2023/03/15 09:06:11;;;;;;;5.00;2.38;;;5.80;99.90;;;;;;5057653;28;20316;-63
2023/03/15 09:08:38;;;;;;;7.78;2.60;;;5.90;99.90;;;;;;5057764;28;20206;-63
2023/03/15 09:11:05;;;;;;;4.50;2.65;;;6.00;99.90;;;;;;5056955;28;20272;-63
2023/03/15 09:13:32;;;;;;;3.38;2.40;;;6.10;99.90;;;;;;5057845;28;20202;-63
2023/03/15 09:15:59;;;;;;;5.53;2.22;;;6.30;99.90;;;;;;5056884;28;20587;-63
2023/03/15 09:18:26;;;;;;;2.20;1.77;;;6.30;99.90;;;;;;5056915;28;20208;-63
2023/03/15 09:20:54;;;;;;;6.15;2.85;;;6.40;99.90;;;;;;5056702;28;20576;-63
2023/03/15 09:23:20;;;;;;;5.82;2.20;;;6.60;99.10;;;;;;5061780;28;20201;-64
2023/03/15 09:25:47;;;;;;;5.22;2.08;;;6.80;98.10;;;;;;5057012;28;20604;-63
2023/03/15 09:28:14;;;;;;;6.40;2.60;;;6.80;97.00;;;;;;5056109;28;20203;-62
2023/03/15 09:30:42;;;;;;;4.68;1.80;;;6.60;96.00;;;;;;5056274;28;20197;-64
2023/03/15 09:33:13;;;;;;;7.85;2.28;;;6.50;95.90;;;;;;5056384;28;20206;-63
2023/03/15 09:35:40;;;;;;;2.55;1.63;;;6.20;95.10;;;;;;5056219;28;20569;-64
2023/03/15 09:38:09;;;;;;;6.63;2.00;;;6.00;94.70;;;;;;5056449;28;20210;-63
2023/03/15 09:40:40;;;;;;;4.47;2.05;;;5.70;94.70;;;;;;5056645;28;20206;-64
2023/03/15 09:43:31;;;;;;;3.53;2.28;;;5.60;95.10;;;;;;5056249;28;20182;-63
2023/03/15 09:46:10;;;;;;;4.80;1.60;;;5.40;95.30;;;;;;5053957;28;20232;-65
2023/03/15 09:48:43;;;;;;;2.47;1.65;;;5.40;95.70;;;;;;5056074;28;20195;-63
2023/03/15 09:51:16;;;;;;;4.15;1.55;;;5.60;96.00;;;;;;5056075;28;20535;-61
2023/03/15 09:53:51;;;;;;;6.15;2.10;;;5.80;95.80;;;;;;5055833;28;20187;-63
2023/03/15 09:56:25;;;;;;;7.53;1.70;;;6.10;95.00;;;;;;5056146;28;20225;-62
2023/03/15 09:58:55;;;;;;;12.45;1.90;;;6.30;92.70;;;;;;5055778;28;20505;-62
2023/03/15 10:01:28;;;;;;;3.20;1.50;;;6.30;90.60;;;;;;5055467;28;20209;-62
2023/03/15 10:03:55;;;;;;;5.78;2.10;;;6.40;89.10;;;;;;5055423;28;20183;-63
2023/03/15 10:06:26;;;;;;;2.45;1.92;;;6.40;88.00;;;;;;5055880;28;20218;-62
2023/03/15 10:08:57;;;;;;;4.10;1.27;;;6.30;86.90;;;;;;5055317;28;20685;-62
2023/03/15 10:11:29;;;;;;;3.72;1.33;;;6.30;85.70;;;;;;5055153;28;20643;-62
2023/03/15 10:14:08;;;;;;;2.47;1.35;;;6.30;81.90;;;;;;5055237;28;20213;-62
2023/03/15 10:16:40;;;;;;;2.88;1.55;;;6.40;77.90;;;;;;5055340;28;20182;-63
2023/03/15 10:19:18;;;;;;;2.55;1.30;;;6.50;74.50;;;;;;5056018;28;20199;-63
2023/03/15 10:21:52;;;;;;;7.70;1.67;;;6.70;71.50;;;;;;5055599;28;20689;-63
2023/03/15 10:24:25;;;;;;;3.60;1.50;;;6.80;68.90;;;;;;5057188;28;20259;-63
2023/03/15 10:26:53;;;;;;;4.18;1.40;;;6.70;66.10;;;;;;5055888;28;20209;-62
2023/03/15 10:29:23;;;;;;;2.65;1.30;;;6.60;65.00;;;;;;5055373;28;20299;-63
2023/03/15 10:31:51;;;;;;;7.38;1.70;;;6.60;65.10;;;;;;5055621;28;20584;-62
2023/03/15 10:34:18;;;;;;;4.03;1.40;;;6.70;64.70;;;;;;5056243;28;20201;-63
2023/03/15 10:36:53;;;;;;;10.35;2.67;;;6.80;63.60;;;;;;5055572;28;20244;-64
2023/03/15 10:39:21;;;;;;;3.50;1.00;;;7.00;63.50;;;;;;5055559;28;20194;-63
2023/03/15 10:41:50;;;;;;;6.20;1.92;;;7.20;62.80;;;;;;5056001;28;20198;-62
2023/03/15 10:44:18;;;;;;;3.22;1.13;;;7.30;62.50;;;;;;5055512;28;20233;-63
2023/03/15 10:47:00;;;;;;;2.97;1.83;;;7.50;62.10;;;;;;5055510;28;20197;-63
2023/03/15 10:49:34;;;;;;;5.68;1.95;;;7.80;61.10;;;;;;5056552;28;20189;-65
2023/03/15 10:52:01;;;;;;;2.92;1.50;;;8.10;60.40;;;;;;5056233;28;20206;-64
2023/03/15 10:54:32;;;;;;;3.88;1.73;;;8.30;59.50;;;;;;5056086;28;20225;-65
2023/03/15 10:57:02;;;;;;;4.53;1.70;;;8.30;57.60;;;;;;5056479;28;20721;-63
2023/03/15 10:59:31;;;;;;;2.15;1.52;;;8.30;56.70;;;;;;5056959;28;20251;-64
2023/03/15 11:02:25;;;;;;;4.30;1.38;;;8.20;55.50;;;;;;5056732;28;20225;-65
2023/03/15 11:05:01;;;;;;;1.90;1.08;;;8.20;55.20;;;;;;5055830;28;20217;-64
2023/03/15 11:07:28;;;;;;;4.80;1.25;;;8.10;54.40;;;;;;5055450;28;20563;-63
2023/03/15 11:10:00;;;;;;;2.78;1.20;;;8.10;54.30;;;;;;5055542;28;20297;-64
2023/03/15 11:12:28;;;;;;;4.65;1.60;;;8.20;53.50;;;;;;5055424;28;20630;-63
2023/03/15 11:14:59;;;;;;;2.20;1.10;;;8.30;52.30;;;;;;5056797;28;20264;-60
2023/03/15 11:17:28;;;;;;;5.18;1.63;;;8.40;51.60;;;;;;5057237;28;20264;-65
2023/03/15 11:19:58;;;;;;;3.85;1.20;;;8.40;51.10;;;;;;5058273;28;20200;-64
2023/03/15 11:22:25;;;;;;;1.38;1.00;;;8.40;51.00;;;;;;5058578;28;20212;-64
2023/03/15 11:24:54;;;;;;;6.20;1.30;;;8.30;51.50;;;;;;5058031;28;20236;-63
2023/03/15 11:27:24;;;;;;;2.80;1.58;;;8.20;51.60;;;;;;5057923;28;20255;-62
2023/03/15 11:29:55;;;;;;;2.55;1.30;;;8.10;52.40;;;;;;5055818;28;20196;-63
2023/03/15 11:32:24;;;;;;;1.85;1.08;;;7.90;52.80;;;;;;5055123;28;20214;-64
2023/03/15 11:34:58;;;;;;;6.53;1.35;;;7.60;53.40;;;;;;5055942;28;20308;-64
2023/03/15 11:37:29;;;;;;;3.10;2.75;;;7.40;54.00;;;;;;5055809;28;20291;-63
2023/03/15 11:40:00;;;;;;;4.47;1.50;;;7.40;54.60;;;;;;5086256;23;20243;-63
2023/03/15 11:42:33;;;;;;;3.05;1.23;;;7.50;54.10;;;;;;5074541;28;20401;-61
2023/03/15 11:45:04;;;;;;;5.45;1.17;;;7.50;53.40;;;;;;5074387;28;20195;-60
2023/03/15 11:47:41;;;;;;;2.55;1.38;;;7.50;53.20;;;;;;5074598;28;20204;-62
2023/03/15 11:50:13;;;;;;;6.20;1.65;;;7.50;52.90;;;;;;5075282;28;20748;-60
2023/03/15 11:52:41;;;;;;;2.85;1.30;;;7.50;53.20;;;;;;5076553;28;20212;-63
2023/03/15 11:55:16;;;;;;;3.13;1.20;;;7.50;53.10;;;;;;5076596;28;20312;-61
2023/03/15 11:57:46;;;;;;;8.90;1.30;;;7.50;53.90;;;;;;5076458;28;20183;-60
2023/03/15 12:00:42;;;;;;;3.65;1.10;;;7.50;53.50;;;;;;5076985;28;20217;-61
2023/03/15 12:03:39;;;;;;;1.85;1.15;;;7.50;53.40;;;;;;5077035;28;20185;-62
2023/03/15 12:06:45;;;;;;;2.65;1.52;;;7.60;53.70;;;;;;4994715;28;20201;-62
2023/03/15 12:09:40;;;;;;;7.82;1.80;;;7.70;53.30;;;;;;5073291;28;20212;-61
2023/03/15 12:12:36;;;;;;;4.22;1.40;;;7.90;52.10;;;;;;5067209;28;20287;-60
2023/03/15 12:15:07;;;;;;;2.67;1.40;;;7.90;50.70;;;;;;5075577;28;20185;-59
2023/03/15 12:17:42;;;;;;;1.45;0.90;;;7.90;49.60;;;;;;5075049;28;20185;-61
2023/03/15 12:20:19;;;;;;;2.97;1.25;;;7.90;48.90;;;;;;5076514;28;20234;-62
2023/03/15 12:22:51;;;;;;;2.90;0.93;;;8.10;48.20;;;;;;5077118;28;20588;-61
2023/03/15 12:25:22;;;;;;;4.35;1.20;;;8.20;47.20;;;;;;5075556;28;20214;-62
2023/03/15 12:27:52;;;;;;;9.82;1.90;;;8.40;47.10;;;;;;5074630;28;20599;-60
2023/03/15 12:30:24;;;;;;;3.75;1.02;;;8.40;47.10;;;;;;5074803;28;20224;-62
2023/03/15 12:32:55;;;;;;;1.73;0.90;;;8.10;48.40;;;;;;5078144;28;20208;-61
2023/03/15 12:35:27;;;;;;;3.38;1.25;;;7.60;49.90;;;;;;5078362;28;20193;-60
2023/03/15 12:37:56;;;;;;;2.47;1.08;;;7.20;50.90;;;;;;5077269;28;20193;-62
2023/03/15 12:40:38;;;;;;;1.50;0.90;;;7.00;52.50;;;;;;5076767;28;20234;-61
2023/03/15 12:43:05;;;;;;;1.00;0.90;;;6.50;58.30;;;;;;5077629;28;20177;-61
2023/03/15 12:45:39;;;;;;;2.58;1.20;;;6.10;63.70;;;;;;5078368;28;20297;-62
2023/03/15 12:48:33;;;;;;;2.47;1.70;;;5.60;69.00;;;;;;5077538;28;20196;-62
2023/03/15 12:51:05;;;;;;;5.25;1.48;;;5.30;76.70;;;;;;5029872;28;20221;-60
2023/03/15 12:53:49;;;;;;;1.63;1.25;;;5.20;83.40;;;;;;5076769;28;20213;-59
2023/03/15 12:56:45;;;;;;;3.42;0.82;;;5.10;89.40;;;;;;5076924;28;20189;-61
2023/03/15 12:59:26;;;;;;;1.95;1.00;;;4.80;93.50;;;;;;5077224;28;20189;-60
2023/03/15 13:01:56;;;;;;;2.00;0.70;;;4.60;97.70;;;;;;5078299;28;20277;-62
2023/03/15 13:04:23;;;;;;;1.23;1.00;;;4.50;99.90;;;;;;5077731;28;20224;-60
2023/03/15 13:07:21;;;;;;;1.20;1.10;;;4.20;99.90;;;;;;5076185;28;20197;-60
2023/03/15 13:10:02;;;;;;;1.98;1.05;;;3.90;99.90;;;;;;5075869;28;20229;-60